createdAt,value
2019-03-10T00:00:15.523Z,97.69
2019-03-10T00:01:15.537Z,97.88
2019-03-10T00:02:15.554Z,97.5
2019-03-10T00:03:15.567Z,97.69
2019-03-10T00:04:15.582Z,97.78
2019-03-10T00:05:15.597Z,97.4
2019-03-10T00:06:15.614Z,97.59
2019-03-10T00:08:15.643Z,97.31
2019-03-10T00:09:15.678Z,97.4
2019-03-10T00:10:15.675Z,97.21
2019-03-10T00:12:15.701Z,97.4
2019-03-10T00:14:30.395Z,97.4
2019-03-10T00:15:15.747Z,97.5
2019-03-10T00:16:15.763Z,97.59
2019-03-10T00:17:15.779Z,97.78
2019-03-10T00:18:15.795Z,97.5
2019-03-10T00:19:15.805Z,97.4
2019-03-10T00:20:15.822Z,97.02
2019-03-10T00:21:15.835Z,96.92
2019-03-10T00:22:15.852Z,97.97
2019-03-10T00:23:15.866Z,97.59
2019-03-10T00:24:15.881Z,98.25
2019-03-10T00:25:15.897Z,98.07
2019-03-10T00:27:15.933Z,97.59
2019-03-10T00:28:15.944Z,97.69
2019-03-10T00:29:15.719Z,97.4
2019-03-10T00:30:30.633Z,98.35
2019-03-10T00:31:15.995Z,97.97
2019-03-10T00:32:15.998Z,97.69
2019-03-10T00:33:16.016Z,97.69
2019-03-10T00:34:16.836Z,98.07
2019-03-10T00:35:16.045Z,98.54
2019-03-10T00:36:16.061Z,98.63
2019-03-10T00:37:16.096Z,99.11
2019-03-10T00:38:16.128Z,99.01
2019-03-10T00:39:16.111Z,98.73
2019-03-10T00:40:16.133Z,98.82
2019-03-10T00:41:16.133Z,98.35
2019-03-10T00:43:16.161Z,98.92
2019-03-10T00:44:16.180Z,98.54
2019-03-10T00:45:16.196Z,98.63
2019-03-10T00:46:30.868Z,98.54
2019-03-10T00:47:16.221Z,98.54
2019-03-10T00:48:16.236Z,98.73
2019-03-10T00:49:16.256Z,98.44
2019-03-10T00:50:16.266Z,98.16
2019-03-10T00:51:16.282Z,98.16
2019-03-10T00:52:16.297Z,97.78
2019-03-10T00:53:16.320Z,97.69
2019-03-10T00:54:16.355Z,98.16
2019-03-10T00:55:16.344Z,97.69
2019-03-10T00:56:16.353Z,98.07
2019-03-10T00:57:16.370Z,98.25
2019-03-10T00:59:16.399Z,97.88
2019-03-10T01:00:16.420Z,98.16
2019-03-10T01:01:16.427Z,98.07
2019-03-10T01:02:31.107Z,98.35
2019-03-10T01:03:16.455Z,98.82
2019-03-10T01:04:16.471Z,99.11
2019-03-10T01:05:16.486Z,98.54
2019-03-10T01:06:16.500Z,99.01
2019-03-10T01:07:16.527Z,99.11
2019-03-10T01:08:16.530Z,99.58
2019-03-10T01:09:16.561Z,98.82
2019-03-10T01:10:16.560Z,98.82
2019-03-10T01:11:16.573Z,99.39
2019-03-10T01:12:16.588Z,99.39
2019-03-10T01:13:16.604Z,99.2
2019-03-10T01:14:17.081Z,99.3
2019-03-10T01:15:16.736Z,99.3
2019-03-10T01:16:16.676Z,99.49
2019-03-10T01:17:31.326Z,99.68
2019-03-10T01:18:16.678Z,99.77
2019-03-10T01:19:16.691Z,99.49
2019-03-10T01:20:16.462Z,99.99
2019-03-10T01:21:16.722Z,99.99
2019-03-10T01:22:16.736Z,99.99
2019-03-10T01:23:16.751Z,99.96
2019-03-10T01:24:16.768Z,99.99
2019-03-10T01:25:16.782Z,99.96
2019-03-10T01:26:16.795Z,99.96
2019-03-10T01:27:16.813Z,99.99
2019-03-10T01:28:16.824Z,99.99
2019-03-10T01:29:16.846Z,99.68
2019-03-10T01:30:16.856Z,99.96
2019-03-10T01:31:16.868Z,99.99
2019-03-10T01:32:16.886Z,99.99
2019-03-10T01:33:16.898Z,99.99
2019-03-10T01:34:16.912Z,99.99
2019-03-10T01:35:16.932Z,99.99
2019-03-10T01:36:16.942Z,99.99
2019-03-10T01:37:17.057Z,99.99
2019-03-10T01:38:16.972Z,99.99
2019-03-10T01:39:16.987Z,99.99
2019-03-10T01:40:16.999Z,99.99
2019-03-10T01:41:17.015Z,99.99
2019-03-10T01:42:17.028Z,99.99
2019-03-10T01:43:17.043Z,99.99
2019-03-10T01:44:17.059Z,99.99
2019-03-10T01:45:17.075Z,99.99
2019-03-10T01:47:17.103Z,99.99
2019-03-10T01:48:17.117Z,99.99
2019-03-10T01:49:31.797Z,99.99
2019-03-10T01:50:17.258Z,99.99
2019-03-10T01:51:17.209Z,99.99
2019-03-10T01:52:17.175Z,99.99
2019-03-10T01:54:17.393Z,99.99
2019-03-10T01:55:17.220Z,99.99
2019-03-10T01:56:17.233Z,99.99
2019-03-10T01:57:17.248Z,99.99
2019-03-10T01:58:17.265Z,99.99
2019-03-10T01:59:17.279Z,99.99
2019-03-10T02:00:17.293Z,99.99
2019-03-10T02:01:17.308Z,99.99
2019-03-10T02:02:25.087Z,99.99
2019-03-10T02:03:17.337Z,99.99
2019-03-10T02:04:17.350Z,99.99
2019-03-10T02:05:32.029Z,99.99
2019-03-10T02:06:17.382Z,99.99
2019-03-10T02:07:17.394Z,99.99
2019-03-10T02:08:17.410Z,99.99
2019-03-10T02:09:17.424Z,99.99
2019-03-10T02:10:17.438Z,99.77
2019-03-10T02:11:17.452Z,99.99
2019-03-10T02:12:17.469Z,99.99
2019-03-10T02:13:17.488Z,99.99
2019-03-10T02:15:17.517Z,99.99
2019-03-10T02:16:17.533Z,99.99
2019-03-10T02:19:17.571Z,99.99
2019-03-10T02:20:17.584Z,99.99
2019-03-10T02:21:32.261Z,99.99
2019-03-10T02:22:17.616Z,99.99
2019-03-10T02:23:17.634Z,99.99
2019-03-10T02:24:26.117Z,99.99
2019-03-10T02:25:17.409Z,99.99
2019-03-10T02:26:17.672Z,99.99
2019-03-10T02:27:17.687Z,99.99
2019-03-10T02:28:17.702Z,99.99
2019-03-10T02:29:17.716Z,99.99
2019-03-10T02:30:17.751Z,99.99
2019-03-10T02:31:17.752Z,99.99
2019-03-10T02:32:17.779Z,99.99
2019-03-10T02:33:17.780Z,99.99
2019-03-10T02:34:17.788Z,99.99
2019-03-10T02:35:17.807Z,99.99
2019-03-10T02:36:17.831Z,99.99
2019-03-10T02:37:32.496Z,99.99
2019-03-10T02:38:17.856Z,99.99
2019-03-10T02:39:17.937Z,99.99
2019-03-10T02:40:17.909Z,99.99
2019-03-10T02:41:17.895Z,99.99
2019-03-10T02:42:17.909Z,99.99
2019-03-10T02:43:17.926Z,99.99
2019-03-10T02:44:17.934Z,99.99
2019-03-10T02:45:17.951Z,99.99
2019-03-10T02:46:17.981Z,99.99
2019-03-10T02:47:17.987Z,99.99
2019-03-10T02:48:18.011Z,99.99
2019-03-10T02:49:18.043Z,99.99
2019-03-10T02:50:18.028Z,99.99
2019-03-10T02:51:18.057Z,99.99
2019-03-10T02:52:32.715Z,99.99
2019-03-10T02:53:18.075Z,99.99
2019-03-10T02:54:18.085Z,99.99
2019-03-10T02:55:18.106Z,99.99
2019-03-10T02:56:18.126Z,99.99
2019-03-10T02:57:18.127Z,99.99
2019-03-10T02:58:18.138Z,99.99
2019-03-10T02:59:18.163Z,99.99
2019-03-10T03:00:18.168Z,99.99
2019-03-10T03:01:18.185Z,99.99
2019-03-10T03:02:18.231Z,99.99
2019-03-10T03:03:18.236Z,99.99
2019-03-10T03:04:18.231Z,99.99
2019-03-10T03:05:18.242Z,99.99
2019-03-10T03:06:18.262Z,99.99
2019-03-10T03:07:18.285Z,99.99
2019-03-10T03:08:19.507Z,99.99
2019-03-10T03:09:18.300Z,99.99
2019-03-10T03:10:18.319Z,99.99
2019-03-10T03:11:18.351Z,99.99
2019-03-10T03:12:18.342Z,99.99
2019-03-10T03:13:18.360Z,99.99
2019-03-10T03:14:18.387Z,99.99
2019-03-10T03:15:18.402Z,99.99
2019-03-10T03:16:18.402Z,99.99
2019-03-10T03:17:18.425Z,99.99
2019-03-10T03:19:18.444Z,99.99
2019-03-10T03:20:18.457Z,99.99
2019-03-10T03:21:18.486Z,99.99
2019-03-10T03:22:18.491Z,99.99
2019-03-10T03:23:18.514Z,99.99
2019-03-10T03:24:33.178Z,99.99
2019-03-10T03:25:18.546Z,99.99
2019-03-10T03:26:18.565Z,99.99
2019-03-10T03:27:18.574Z,99.99
2019-03-10T03:28:18.573Z,99.99
2019-03-10T03:29:18.602Z,99.99
2019-03-10T03:30:18.654Z,99.99
2019-03-10T03:31:18.633Z,99.99
2019-03-10T03:33:18.667Z,99.99
2019-03-10T03:34:18.674Z,99.99
2019-03-10T03:35:18.679Z,99.99
2019-03-10T03:36:18.821Z,99.99
2019-03-10T03:37:18.725Z,99.99
2019-03-10T03:38:18.718Z,99.99
2019-03-10T03:39:18.741Z,99.99
2019-03-10T03:40:33.414Z,99.99
2019-03-10T03:41:18.787Z,99.99
2019-03-10T03:42:18.789Z,99.99
2019-03-10T03:43:18.793Z,99.99
2019-03-10T03:44:18.816Z,99.99
2019-03-10T03:45:18.834Z,99.99
2019-03-10T03:46:18.588Z,99.99
2019-03-10T03:47:18.849Z,99.99
2019-03-10T03:48:18.871Z,99.99
2019-03-10T03:50:18.893Z,99.99
2019-03-10T03:51:18.660Z,99.99
2019-03-10T03:52:18.931Z,99.99
2019-03-10T03:54:18.704Z,99.99
2019-03-10T03:55:18.988Z,99.99
2019-03-10T03:56:33.641Z,99.99
2019-03-10T03:58:19.010Z,99.99
2019-03-10T03:59:19.022Z,99.99
2019-03-10T04:00:19.036Z,99.99
2019-03-10T04:01:19.053Z,99.99
2019-03-10T04:02:19.102Z,99.99
2019-03-10T04:03:19.081Z,99.99
2019-03-10T04:04:19.101Z,99.99
2019-03-10T04:05:19.138Z,99.99
2019-03-10T04:06:19.153Z,99.99
2019-03-10T04:07:19.147Z,99.99
2019-03-10T04:08:19.152Z,99.99
2019-03-10T04:09:19.177Z,99.99
2019-03-10T04:10:19.182Z,99.99
2019-03-10T04:11:19.194Z,99.99
2019-03-10T04:12:33.875Z,99.99
2019-03-10T04:13:19.223Z,99.99
2019-03-10T04:14:19.247Z,99.99
2019-03-10T04:15:19.260Z,99.99
2019-03-10T04:16:19.267Z,99.99
2019-03-10T04:17:19.302Z,99.99
2019-03-10T04:18:19.302Z,99.99
2019-03-10T04:19:19.370Z,99.99
2019-03-10T04:20:19.331Z,99.99
2019-03-10T04:21:19.346Z,99.99
2019-03-10T04:22:19.357Z,99.99
2019-03-10T04:23:19.400Z,99.99
2019-03-10T04:24:19.383Z,99.99
2019-03-10T04:25:19.398Z,99.99
2019-03-10T04:26:19.413Z,99.99
2019-03-10T04:27:34.088Z,99.99
2019-03-10T04:28:19.441Z,99.99
2019-03-10T04:29:21.510Z,99.99
2019-03-10T04:30:19.475Z,99.99
2019-03-10T04:31:19.490Z,99.99
2019-03-10T04:32:19.503Z,99.99
2019-03-10T04:33:19.509Z,99.99
2019-03-10T04:34:19.525Z,99.99
2019-03-10T04:35:19.543Z,99.99
2019-03-10T04:36:19.560Z,99.99
2019-03-10T04:37:19.670Z,99.99
2019-03-10T04:38:19.593Z,99.99
2019-03-10T04:40:19.610Z,99.99
2019-03-10T04:41:19.630Z,99.99
2019-03-10T04:42:19.640Z,99.99
2019-03-10T04:43:19.655Z,99.99
2019-03-10T04:44:19.668Z,99.99
2019-03-10T04:45:19.683Z,99.99
2019-03-10T04:46:19.718Z,99.99
2019-03-10T04:47:19.715Z,99.99
2019-03-10T04:48:19.732Z,99.99
2019-03-10T04:49:19.754Z,99.99
2019-03-10T04:50:19.774Z,99.99
2019-03-10T04:51:19.769Z,99.99
2019-03-10T04:52:19.787Z,99.99
2019-03-10T04:53:19.804Z,99.99
2019-03-10T04:54:19.816Z,99.99
2019-03-10T04:55:19.827Z,99.99
2019-03-10T04:56:19.847Z,99.99
2019-03-10T04:57:19.881Z,99.99
2019-03-10T04:58:19.870Z,99.99
2019-03-10T04:59:34.551Z,99.99
2019-03-10T05:00:19.901Z,99.99
2019-03-10T05:01:19.915Z,99.99
2019-03-10T05:02:19.930Z,99.99
2019-03-10T05:03:19.945Z,99.99
2019-03-10T05:04:19.963Z,99.99
2019-03-10T05:05:19.978Z,99.99
2019-03-10T05:06:19.988Z,99.99
2019-03-10T05:07:20.007Z,99.99
2019-03-10T05:08:20.019Z,99.99
2019-03-10T05:09:20.036Z,99.99
2019-03-10T05:10:20.048Z,99.99
2019-03-10T05:11:20.076Z,99.99
2019-03-10T05:13:20.091Z,99.99
2019-03-10T05:14:20.116Z,99.99
2019-03-10T05:15:34.784Z,99.99
2019-03-10T05:16:20.136Z,99.99
2019-03-10T05:17:20.149Z,99.99
2019-03-10T05:18:20.164Z,99.99
2019-03-10T05:19:20.180Z,99.99
2019-03-10T05:20:20.194Z,99.99
2019-03-10T05:21:20.214Z,99.99
2019-03-10T05:22:20.223Z,99.99
2019-03-10T05:23:20.243Z,99.99
2019-03-10T05:24:20.252Z,99.99
2019-03-10T05:25:20.278Z,99.99
2019-03-10T05:27:20.308Z,99.99
2019-03-10T05:28:20.414Z,99.99
2019-03-10T05:29:20.328Z,99.99
2019-03-10T05:30:20.342Z,99.99
2019-03-10T05:31:35.020Z,99.99
2019-03-10T05:32:20.371Z,99.99
2019-03-10T05:33:20.414Z,99.99
2019-03-10T05:34:20.402Z,99.99
2019-03-10T05:35:20.417Z,99.99
2019-03-10T05:36:20.434Z,99.99
2019-03-10T05:37:20.452Z,99.99
2019-03-10T05:38:20.465Z,99.99
2019-03-10T05:39:20.475Z,99.99
2019-03-10T05:40:20.497Z,99.99
2019-03-10T05:41:20.505Z,99.99
2019-03-10T05:42:20.519Z,99.99
2019-03-10T05:45:20.565Z,99.99
2019-03-10T05:46:20.577Z,99.99
2019-03-10T05:47:35.258Z,99.99
2019-03-10T05:48:20.613Z,99.99
2019-03-10T05:49:20.676Z,99.99
2019-03-10T05:50:20.642Z,99.99
2019-03-10T05:51:20.653Z,99.99
2019-03-10T05:52:20.669Z,99.99
2019-03-10T05:53:20.692Z,99.99
2019-03-10T05:54:20.705Z,99.99
2019-03-10T05:55:20.713Z,99.99
2019-03-10T05:56:20.727Z,99.99
2019-03-10T05:57:20.743Z,99.99
2019-03-10T05:59:20.777Z,99.99
2019-03-10T06:00:20.789Z,99.99
2019-03-10T06:01:20.811Z,99.99
2019-03-10T06:02:35.481Z,99.99
2019-03-10T06:03:20.841Z,99.99
2019-03-10T06:04:20.631Z,99.99
2019-03-10T06:05:20.863Z,99.99
2019-03-10T06:06:20.882Z,99.99
2019-03-10T06:07:20.893Z,99.99
2019-03-10T06:08:20.906Z,99.99
2019-03-10T06:09:20.922Z,99.99
2019-03-10T06:10:20.938Z,99.99
2019-03-10T06:11:20.953Z,99.99
2019-03-10T06:12:20.971Z,99.99
2019-03-10T06:13:20.982Z,99.99
2019-03-10T06:14:21.001Z,99.99
2019-03-10T06:15:21.013Z,99.99
2019-03-10T06:16:21.029Z,99.99
2019-03-10T06:17:21.554Z,99.99
2019-03-10T06:18:21.063Z,99.99
2019-03-10T06:19:21.084Z,99.99
2019-03-10T06:20:21.091Z,99.99
2019-03-10T06:21:21.116Z,99.99
2019-03-10T06:22:21.121Z,99.99
2019-03-10T06:23:21.168Z,99.99
2019-03-10T06:24:21.154Z,99.99
2019-03-10T06:25:21.179Z,99.99
2019-03-10T06:26:21.182Z,99.99
2019-03-10T06:27:21.198Z,99.99
2019-03-10T06:28:21.214Z,99.99
2019-03-10T06:29:21.229Z,99.99
2019-03-10T06:31:21.262Z,99.99
2019-03-10T06:32:21.279Z,99.99
2019-03-10T06:33:21.337Z,99.99
2019-03-10T06:34:35.968Z,99.99
2019-03-10T06:35:21.323Z,99.99
2019-03-10T06:36:21.341Z,99.99
2019-03-10T06:37:21.350Z,99.99
2019-03-10T06:38:21.367Z,99.99
2019-03-10T06:39:21.382Z,99.99
2019-03-10T06:40:31.207Z,99.99
2019-03-10T06:41:21.411Z,99.99
2019-03-10T06:42:21.428Z,99.99
2019-03-10T06:43:21.446Z,99.99
2019-03-10T06:44:23.440Z,99.99
2019-03-10T06:45:21.478Z,99.99
2019-03-10T06:48:21.535Z,99.99
2019-03-10T06:49:21.578Z,99.99
2019-03-10T06:50:36.237Z,99.99
2019-03-10T06:51:21.676Z,99.83
2019-03-10T06:52:21.621Z,99.16
2019-03-10T06:53:21.655Z,98.5
2019-03-10T06:55:21.674Z,97.27
2019-03-10T06:56:21.695Z,96.93
2019-03-10T06:57:21.717Z,96.93
2019-03-10T06:58:21.740Z,95.98
2019-03-10T06:59:21.757Z,96.17
2019-03-10T07:00:21.782Z,95.6
2019-03-10T07:01:21.808Z,95.12
2019-03-10T07:02:21.819Z,95.41
2019-03-10T07:03:21.841Z,94.74
2019-03-10T07:04:21.860Z,95.12
2019-03-10T07:05:21.883Z,94.74
2019-03-10T07:06:36.568Z,94.65
2019-03-10T07:07:21.921Z,94.65
2019-03-10T07:08:21.943Z,94.13
2019-03-10T07:09:21.964Z,94.13
2019-03-10T07:10:21.987Z,93.37
2019-03-10T07:11:22.007Z,92.51
2019-03-10T07:12:22.026Z,92.61
2019-03-10T07:13:22.046Z,93.18
2019-03-10T07:14:22.066Z,92.8
2019-03-10T07:15:22.189Z,92.41
2019-03-10T07:16:22.120Z,92.8
2019-03-10T07:17:22.148Z,93.08
2019-03-10T07:18:22.161Z,92.32
2019-03-10T07:19:22.175Z,92.03
2019-03-10T07:20:22.190Z,91.47
2019-03-10T07:21:22.219Z,91.66
2019-03-10T07:22:36.895Z,91.47
2019-03-10T07:23:22.254Z,91.56
2019-03-10T07:24:22.271Z,91.37
2019-03-10T07:25:22.291Z,91.08
2019-03-10T07:26:22.312Z,91.47
2019-03-10T07:27:22.330Z,91.47
2019-03-10T07:28:22.348Z,91.85
2019-03-10T07:29:22.369Z,91.47
2019-03-10T07:30:22.391Z,91.47
2019-03-10T07:31:22.408Z,91.94
2019-03-10T07:32:22.439Z,91.85
2019-03-10T07:33:22.489Z,92.22
2019-03-10T07:35:22.485Z,91.94
2019-03-10T07:36:22.506Z,92.03
2019-03-10T07:37:37.186Z,91.94
2019-03-10T07:38:22.543Z,92.22
2019-03-10T07:39:22.558Z,92.03
2019-03-10T07:40:22.577Z,91.85
2019-03-10T07:41:22.599Z,91.56
2019-03-10T07:42:22.614Z,91.47
2019-03-10T07:43:22.632Z,91.66
2019-03-10T07:44:22.748Z,92.03
2019-03-10T07:45:22.670Z,91.85
2019-03-10T07:46:22.688Z,91.56
2019-03-10T07:47:22.763Z,92.03
2019-03-10T07:48:22.726Z,91.94
2019-03-10T07:49:22.762Z,92.03
2019-03-10T07:51:22.778Z,91.28
2019-03-10T07:52:23.231Z,91.08
2019-03-10T07:53:22.815Z,91.56
2019-03-10T07:54:22.831Z,91.75
2019-03-10T07:55:22.851Z,90.99
2019-03-10T07:56:22.868Z,90.89
2019-03-10T07:57:22.891Z,90.8
2019-03-10T07:58:22.903Z,90.37
2019-03-10T07:59:22.933Z,90.47
2019-03-10T08:00:22.940Z,90.37
2019-03-10T08:01:22.958Z,90.14
2019-03-10T08:02:22.976Z,90.04
2019-03-10T08:03:22.995Z,90.28
2019-03-10T08:04:23.012Z,90.47
2019-03-10T08:05:23.029Z,90.18
2019-03-10T08:06:23.050Z,89.7
2019-03-10T08:07:23.070Z,89.8
2019-03-10T08:08:23.085Z,89.51
2019-03-10T08:09:37.768Z,88.85
2019-03-10T08:10:23.126Z,88.46
2019-03-10T08:11:23.143Z,88.37
2019-03-10T08:12:23.160Z,88.66
2019-03-10T08:13:23.177Z,88.09
2019-03-10T08:14:23.196Z,87.52
2019-03-10T08:15:23.218Z,87.42
2019-03-10T08:16:23.233Z,86.61
2019-03-10T08:17:24.563Z,86.9
2019-03-10T08:18:23.281Z,87.65
2019-03-10T08:19:23.291Z,87.56
2019-03-10T08:21:23.384Z,86.13
2019-03-10T08:22:23.349Z,85.18
2019-03-10T08:23:23.399Z,85.47
2019-03-10T08:24:23.390Z,85.85
2019-03-10T08:25:38.072Z,85.37
2019-03-10T08:26:23.428Z,85.75
2019-03-10T08:27:23.441Z,86.04
2019-03-10T08:28:23.480Z,86.22
2019-03-10T08:29:23.482Z,85.85
2019-03-10T08:30:23.603Z,85.99
2019-03-10T08:31:23.519Z,86.18
2019-03-10T08:32:23.538Z,85.13
2019-03-10T08:34:23.580Z,85.13
2019-03-10T08:35:23.608Z,84.65
2019-03-10T08:36:23.615Z,85.32
2019-03-10T08:37:23.635Z,84.36
2019-03-10T08:38:23.655Z,84.46
2019-03-10T08:39:23.676Z,84.65
2019-03-10T08:40:23.698Z,84.5
2019-03-10T08:41:38.377Z,83.26
2019-03-10T08:42:23.734Z,83.26
2019-03-10T08:43:23.794Z,83.22
2019-03-10T08:44:23.773Z,82.75
2019-03-10T08:45:23.791Z,82.93
2019-03-10T08:46:23.811Z,82.93
2019-03-10T08:47:23.837Z,83.32
2019-03-10T08:48:23.904Z,82.37
2019-03-10T08:49:23.870Z,82.75
2019-03-10T08:50:23.890Z,83.75
2019-03-10T08:51:23.914Z,83.41
2019-03-10T08:52:23.928Z,82.93
2019-03-10T08:53:23.948Z,83.03
2019-03-10T08:54:23.972Z,83.13
2019-03-10T08:55:23.996Z,82.56
2019-03-10T08:56:24.006Z,82.46
2019-03-10T08:57:38.691Z,81.89
2019-03-10T08:59:24.065Z,81.89
2019-03-10T09:00:24.085Z,81.98
2019-03-10T09:01:24.107Z,82.37
2019-03-10T09:02:24.126Z,82.37
2019-03-10T09:03:24.149Z,82.37
2019-03-10T09:04:24.161Z,82.84
2019-03-10T09:05:24.181Z,81.93
2019-03-10T09:06:24.200Z,82.12
2019-03-10T09:07:24.220Z,81.74
2019-03-10T09:08:24.239Z,81.41
2019-03-10T09:09:24.260Z,81.51
2019-03-10T09:10:24.284Z,82.46
2019-03-10T09:11:24.298Z,82.65
2019-03-10T09:12:38.982Z,82.75
2019-03-10T09:13:24.347Z,82.27
2019-03-10T09:14:24.361Z,82.27
2019-03-10T09:15:24.375Z,81.41
2019-03-10T09:16:24.395Z,81.23
2019-03-10T09:17:24.427Z,81.03
2019-03-10T09:18:24.439Z,81.03
2019-03-10T09:19:24.454Z,81.7
2019-03-10T09:20:24.469Z,81.23
2019-03-10T09:22:24.509Z,80.94
2019-03-10T09:23:24.530Z,81.23
2019-03-10T09:25:24.565Z,81.23
2019-03-10T09:26:24.588Z,81.17
2019-03-10T09:27:24.607Z,80.88
2019-03-10T09:28:24.625Z,80.69
2019-03-10T09:29:24.640Z,79.07
2019-03-10T09:30:24.662Z,78.22
2019-03-10T09:31:24.683Z,78.31
2019-03-10T09:32:24.711Z,78.31
2019-03-10T09:33:24.718Z,77.83
2019-03-10T09:34:24.739Z,78.59
2019-03-10T09:35:24.856Z,78.98
2019-03-10T09:36:24.774Z,78.98
2019-03-10T09:37:24.793Z,78.5
2019-03-10T09:38:24.828Z,78.41
2019-03-10T09:39:24.832Z,78.22
2019-03-10T09:40:24.875Z,77.36
2019-03-10T09:41:24.873Z,77.45
2019-03-10T09:42:24.892Z,77.93
2019-03-10T09:43:24.908Z,77.83
2019-03-10T09:44:39.591Z,78.78
2019-03-10T09:45:24.953Z,77.83
2019-03-10T09:46:24.968Z,78.03
2019-03-10T09:47:24.983Z,77.74
2019-03-10T09:48:25.015Z,77.83
2019-03-10T09:49:25.029Z,77.93
2019-03-10T09:50:25.043Z,78.31
2019-03-10T09:51:25.059Z,77.55
2019-03-10T09:52:25.079Z,77.74
2019-03-10T09:53:25.117Z,77.45
2019-03-10T09:54:25.135Z,77.55
2019-03-10T09:55:25.136Z,76.69
2019-03-10T09:57:25.184Z,76.03
2019-03-10T09:59:25.211Z,76.4
2019-03-10T10:00:39.897Z,76.4
2019-03-10T10:01:25.251Z,76.12
2019-03-10T10:02:25.270Z,74.69
2019-03-10T10:03:25.286Z,74.88
2019-03-10T10:04:25.313Z,74.88
2019-03-10T10:05:25.327Z,75.4
2019-03-10T10:06:25.346Z,74.92
2019-03-10T10:07:25.367Z,74.73
2019-03-10T10:08:25.385Z,74.73
2019-03-10T10:09:25.404Z,75.01
2019-03-10T10:10:25.421Z,74.44
2019-03-10T10:11:25.440Z,74.06
2019-03-10T10:12:25.459Z,74.82
2019-03-10T10:13:25.483Z,75.2
2019-03-10T10:14:25.497Z,75.59
2019-03-10T10:15:25.516Z,75.11
2019-03-10T10:16:40.199Z,75.11
2019-03-10T10:17:25.554Z,75.01
2019-03-10T10:18:25.578Z,75.49
2019-03-10T10:19:25.594Z,76.06
2019-03-10T10:20:26.761Z,76.06
2019-03-10T10:21:25.731Z,75.87
2019-03-10T10:22:25.654Z,76.03
2019-03-10T10:23:25.673Z,76.12
2019-03-10T10:24:25.690Z,77.11
2019-03-10T10:25:25.709Z,77.69
2019-03-10T10:26:25.727Z,77.55
2019-03-10T10:27:25.756Z,76.5
2019-03-10T10:28:25.774Z,76.88
2019-03-10T10:29:25.789Z,77.97
2019-03-10T10:30:25.806Z,77.74
2019-03-10T10:31:25.821Z,77.11
2019-03-10T10:32:40.505Z,76.82
2019-03-10T10:33:25.863Z,77.59
2019-03-10T10:34:25.880Z,76.82
2019-03-10T10:35:25.919Z,77.11
2019-03-10T10:36:25.916Z,76.64
2019-03-10T10:37:25.937Z,76.35
2019-03-10T10:38:25.961Z,76.06
2019-03-10T10:39:25.975Z,74.73
2019-03-10T10:40:25.996Z,74.54
2019-03-10T10:41:26.014Z,76.54
2019-03-10T10:42:26.040Z,77.2
2019-03-10T10:43:26.050Z,76.64
2019-03-10T10:44:26.073Z,78.22
2019-03-10T10:46:26.108Z,77.3
2019-03-10T10:47:40.791Z,76.88
2019-03-10T10:48:26.147Z,77.26
2019-03-10T10:49:26.194Z,77.83
2019-03-10T10:50:26.213Z,78.5
2019-03-10T10:51:26.287Z,78.88
2019-03-10T10:52:26.242Z,78.5
2019-03-10T10:53:26.278Z,78.69
2019-03-10T10:54:26.283Z,77.93
2019-03-10T10:55:26.307Z,78.03
2019-03-10T10:57:26.323Z,78.31
2019-03-10T10:58:26.335Z,78.98
2019-03-10T10:59:26.356Z,79.46
2019-03-10T11:00:26.384Z,80.94
2019-03-10T11:01:26.392Z,80.84
2019-03-10T11:02:26.411Z,81.32
2019-03-10T11:03:26.431Z,82.08
2019-03-10T11:04:26.448Z,81.89
2019-03-10T11:06:26.489Z,82.37
2019-03-10T11:07:26.504Z,82.65
2019-03-10T11:08:26.521Z,81.6
2019-03-10T11:09:26.566Z,82.18
2019-03-10T11:10:26.560Z,83.03
2019-03-10T11:11:26.577Z,83.41
2019-03-10T11:12:26.595Z,83.51
2019-03-10T11:13:26.623Z,83.7
2019-03-10T11:14:26.638Z,84.08
2019-03-10T11:15:26.656Z,83.89
2019-03-10T11:16:26.674Z,84.46
2019-03-10T11:17:26.689Z,84.03
2019-03-10T11:18:26.706Z,83.74
2019-03-10T11:19:41.392Z,84.03
2019-03-10T11:20:26.496Z,85.17
2019-03-10T11:21:26.766Z,85.46
2019-03-10T11:23:26.799Z,86.98
2019-03-10T11:24:26.829Z,87.93
2019-03-10T11:25:26.841Z,88.7
2019-03-10T11:26:26.857Z,87.5
2019-03-10T11:27:26.877Z,87.46
2019-03-10T11:28:26.897Z,86.03
2019-03-10T11:29:26.915Z,87.74
2019-03-10T11:30:26.939Z,88.74
2019-03-10T11:31:26.952Z,88.93
2019-03-10T11:32:26.970Z,89.79
2019-03-10T11:34:27.008Z,89.5
2019-03-10T11:35:41.690Z,88.79
2019-03-10T11:36:27.046Z,86.51
2019-03-10T11:38:27.082Z,84.69
2019-03-10T11:39:27.101Z,83.93
2019-03-10T11:40:27.129Z,83.74
2019-03-10T11:42:27.163Z,84.65
2019-03-10T11:43:27.183Z,83.7
2019-03-10T11:44:27.195Z,83.7
2019-03-10T11:45:27.221Z,84.36
2019-03-10T11:46:27.234Z,85.7
2019-03-10T11:47:27.302Z,85.7
2019-03-10T11:48:27.272Z,85.8
2019-03-10T11:49:27.301Z,85.32
2019-03-10T11:50:27.307Z,85.32
2019-03-10T11:51:41.989Z,85.41
2019-03-10T11:52:27.366Z,85.32
2019-03-10T11:53:28.312Z,85.8
2019-03-10T11:54:27.383Z,85.7
2019-03-10T11:56:27.420Z,86.22
2019-03-10T11:57:27.438Z,86.08
2019-03-10T11:58:29.868Z,85.56
2019-03-10T11:59:27.474Z,86.9
2019-03-10T12:00:27.494Z,87.65
2019-03-10T12:02:27.529Z,88.23
2019-03-10T12:03:27.547Z,89.94
2019-03-10T12:04:27.573Z,89.65
2019-03-10T12:05:27.586Z,90.13
2019-03-10T12:06:27.602Z,91.13
2019-03-10T12:07:42.285Z,91.42
2019-03-10T12:08:27.639Z,91.61
2019-03-10T12:09:27.657Z,92.75
2019-03-10T12:10:27.678Z,93.41
2019-03-10T12:11:27.696Z,93.04
2019-03-10T12:12:27.712Z,93.51
2019-03-10T12:13:27.737Z,94.46
2019-03-10T12:14:27.750Z,95.32
2019-03-10T12:15:27.766Z,95.89
2019-03-10T12:16:27.794Z,96.55
2019-03-10T12:17:27.816Z,96.26
2019-03-10T12:18:27.829Z,96.36
2019-03-10T12:19:27.837Z,96.17
2019-03-10T12:20:27.859Z,96.08
2019-03-10T12:21:27.878Z,96.46
2019-03-10T12:22:42.556Z,97.31
2019-03-10T12:23:27.911Z,98.08
2019-03-10T12:24:27.930Z,98.17
2019-03-10T12:25:27.946Z,97.79
2019-03-10T12:26:27.965Z,97.55
2019-03-10T12:27:27.987Z,97.79
2019-03-10T12:28:28.003Z,97.17
2019-03-10T12:29:28.022Z,98.46
2019-03-10T12:30:28.035Z,98.6
2019-03-10T12:31:28.053Z,99.88
2019-03-10T12:32:28.071Z,99.79
2019-03-10T12:33:28.090Z,99.88
2019-03-10T12:35:36.743Z,99.36
2019-03-10T12:36:28.193Z,99.84
2019-03-10T12:37:28.161Z,99.64
2019-03-10T12:38:28.178Z,99.99
2019-03-10T12:39:28.195Z,99.99
2019-03-10T12:40:28.214Z,99.99
2019-03-10T12:41:28.233Z,99.99
2019-03-10T12:42:28.249Z,99.99
2019-03-10T12:43:28.269Z,99.99
2019-03-10T12:44:30.488Z,99.99
2019-03-10T12:45:28.315Z,99.99
2019-03-10T12:46:28.324Z,99.99
2019-03-10T12:47:28.340Z,99.99
2019-03-10T12:48:28.362Z,99.99
2019-03-10T12:49:28.377Z,99.99
2019-03-10T12:50:28.391Z,99.99
2019-03-10T12:51:28.411Z,99.99
2019-03-10T12:52:28.428Z,99.99
2019-03-10T12:53:28.443Z,99.99
2019-03-10T12:54:43.127Z,99.99
2019-03-10T12:55:28.482Z,99.99
2019-03-10T12:56:28.503Z,99.99
2019-03-10T12:57:28.516Z,99.99
2019-03-10T12:58:28.544Z,99.99
2019-03-10T12:59:28.553Z,99.99
2019-03-10T13:00:28.572Z,99.99
2019-03-10T13:01:28.586Z,99.99
2019-03-10T13:02:28.606Z,99.99
2019-03-10T13:03:28.651Z,99.99
2019-03-10T13:05:30.727Z,99.99
2019-03-10T13:06:28.688Z,99.99
2019-03-10T13:07:28.698Z,99.99
2019-03-10T13:09:28.734Z,99.99
2019-03-10T13:10:43.413Z,99.99
2019-03-10T13:11:28.770Z,99.99
2019-03-10T13:13:28.802Z,99.99
2019-03-10T13:14:30.820Z,99.99
2019-03-10T13:15:28.839Z,99.99
2019-03-10T13:16:28.858Z,99.99
2019-03-10T13:17:28.876Z,99.99
2019-03-10T13:19:28.912Z,99.99
2019-03-10T13:20:31.094Z,99.99
2019-03-10T13:21:28.979Z,99.99
2019-03-10T13:23:28.986Z,99.99
2019-03-10T13:24:28.998Z,99.99
2019-03-10T13:25:29.018Z,99.99
2019-03-10T13:26:43.700Z,99.99
2019-03-10T13:27:29.053Z,99.99
2019-03-10T13:28:29.073Z,99.99
2019-03-10T13:29:29.088Z,99.99
2019-03-10T13:30:29.106Z,99.99
2019-03-10T13:31:29.127Z,99.99
2019-03-10T13:32:29.143Z,99.99
2019-03-10T13:33:29.158Z,99.99
2019-03-10T13:34:29.176Z,99.99
2019-03-10T13:35:29.194Z,99.99
2019-03-10T13:36:29.212Z,99.99
2019-03-10T13:37:29.229Z,99.99
2019-03-10T13:40:29.285Z,99.99
2019-03-10T13:41:29.300Z,99.99
2019-03-10T13:42:43.984Z,99.99
2019-03-10T13:43:29.341Z,99.99
2019-03-10T13:44:29.355Z,99.99
2019-03-10T13:45:29.370Z,99.99
2019-03-10T13:46:29.388Z,99.99